Terminal Aerodrome Forecast
Issued by NWS Austin/San Antonio, TX

Current Version | Previous Version | Text Only | Print | Product List | Glossary On
Versions: 1 2 3 4 5 6 7 8 9 10 11 12 13 14
000
FTUS44 KEWX 290500
TAFDRT
TAF
KDRT 290537Z 2906/3006 11005KT P6SM SKC
     FM291000 11003KT 3SM BR SKC
     FM291600 14003KT P6SM FEW250
     FM292000 15006KT P6SM FEW250
     FM300100 10003KT P6SM SKC=

USA.gov is the U.S. government's official web portal to all federal, state and local government web resources and services.